Terminal Aerodrome Forecast
Issued by NWS Charleston, WV

Home | Current Version | Previous Version | Text Only | Print | Product List | Glossary On
Versions: 1 2 3 4 5 6 7 8 9 10 11 12 13 14 15 16 17 18 19 20 21 22 23 24 25 26 27 28 29 30 31 32 33 34 35 36 37 38 39 40 41 42 43 44 45 46 47 48 49 50
000
FTUS41 KRLX 182336
TAFHTS
TAF
KHTS 182336Z 1900/1924 21005KT P6SM VCSH FEW029 BKN050
     FM190700 VRB02KT 4SM -SHRA BR BKN029
     FM191200 21004KT 6SM -SHRA BR BKN007
     FM191500 23005KT P6SM -SHRA VCTS BKN025CB
     FM191900 24005KT P6SM SCT030=

USA.gov is the U.S. government's official web portal to all federal, state and local government web resources and services.